Time,TemperatureF,DewpointF,PressureIn,WindDirection,WindDirectionDegrees,WindSpeedMPH,WindSpeedGustMPH,Humidity,HourlyPrecipIn,Conditions,Clouds,dailyrainin,SoftwareType,DateUTC
2013-04-12 00:01:00,35.1,31.1,29.84,WNW,290,0.0,0.0,85,0.00,,,0.00,WeatherCatV1.15B25,2013-04-12 05:01:00,
2013-04-12 00:06:00,35.0,31.0,29.84,WNW,290,0.0,0.0,85,0.00,,,0.00,WeatherCatV1.15B25,2013-04-12 05:06:00,
2013-04-12 00:11:00,34.8,30.8,29.84,WNW,290,0.0,0.0,85,0.00,,,0.00,WeatherCatV1.15B25,2013-04-12 05:11:00,
2013-04-12 00:16:00,34.5,30.2,29.84,WNW,290,0.0,0.0,84,0.00,,,0.00,WeatherCatV1.15B25,2013-04-12 05:16:00,
2013-04-12 00:21:00,34.3,30.6,29.84,WNW,290,0.0,0.0,86,0.00,,,0.00,WeatherCatV1.15B25,2013-04-12 05:21:00,
2013-04-12 00:26:00,34.1,30.6,29.84,WNW,290,0.0,0.0,87,0.00,,,0.00,WeatherCatV1.15B25,2013-04-12 05:26:00,
2013-04-12 00:31:00,34.0,30.5,29.85,WNW,290,0.0,0.0,87,0.00,,,0.00,WeatherCatV1.15B25,2013-04-12 05:31:00,
2013-04-12 00:36:00,33.8,30.3,29.85,WNW,290,0.0,0.0,87,0.00,,,0.00,WeatherCatV1.15B25,2013-04-12 05:36:00,
2013-04-12 00:41:00,33.6,30.2,29.85,WNW,290,0.0,0.0,87,0.00,,,0.00,WeatherCatV1.15B25,2013-04-12 05:41:00,
2013-04-12 00:46:00,33.4,29.7,29.85,WNW,290,0.0,0.0,86,0.00,,,0.00,WeatherCatV1.15B25,2013-04-12 05:46:00,
2013-04-12 00:51:00,33.2,29.5,29.85,WNW,290,0.0,0.0,86,0.00,,,0.00,WeatherCatV1.15B25,2013-04-12 05:51:00,
2013-04-12 00:56:00,32.9,29.2,29.85,WNW,290,0.0,0.0,86,0.00,,,0.00,WeatherCatV1.15B25,2013-04-12 05:56:00,
2013-04-12 01:01:00,32.8,29.4,29.85,WNW,290,0.0,0.0,87,0.00,,,0.00,WeatherCatV1.15B25,2013-04-12 06:01:00,
2013-04-12 01:06:00,32.6,29.2,29.85,WNW,290,0.0,0.0,87,0.00,,,0.00,WeatherCatV1.15B25,2013-04-12 06:06:00,
2013-04-12 01:11:00,32.4,29.0,29.85,WNW,290,0.0,0.0,87,0.00,,,0.00,WeatherCatV1.15B25,2013-04-12 06:11:00,
2013-04-12 01:16:00,32.3,29.2,29.85,WNW,290,0.0,0.0,88,0.00,,,0.00,WeatherCatV1.15B25,2013-04-12 06:16:00,
2013-04-12 01:21:00,32.1,29.0,29.85,WNW,290,0.0,0.0,88,0.00,,,0.00,WeatherCatV1.15B25,2013-04-12 06:21:00,
2013-04-12 01:26:00,32.0,29.1,29.85,WNW,290,0.0,0.0,89,0.00,,,0.00,WeatherCatV1.15B25,2013-04-12 06:26:00,
2013-04-12 01:31:00,31.8,29.2,29.85,WNW,290,0.0,0.0,90,0.00,,,0.00,WeatherCatV1.15B25,2013-04-12 06:31:00,
2013-04-12 01:36:00,31.7,29.1,29.85,WNW,290,0.0,0.0,90,0.00,,,0.00,WeatherCatV1.15B25,2013-04-12 06:36:00,
2013-04-12 01:41:00,31.6,29.0,29.84,WNW,290,0.0,0.0,90,0.00,,,0.00,WeatherCatV1.15B25,2013-04-12 06:41:00,
2013-04-12 01:46:00,31.4,29.1,29.84,WNW,290,0.0,0.0,91,0.00,,,0.00,WeatherCatV1.15B25,2013-04-12 06:46:00,
2013-04-12 01:51:00,31.4,29.1,29.84,WNW,290,0.0,0.0,91,0.00,,,0.00,WeatherCatV1.15B25,2013-04-12 06:51:00,
2013-04-12 01:56:00,31.3,29.3,29.84,WNW,290,0.0,0.0,92,0.00,,,0.00,WeatherCatV1.15B25,2013-04-12 06:56:00,
2013-04-12 02:01:00,31.2,29.2,29.85,WNW,290,0.0,0.0,92,0.00,,,0.00,WeatherCatV1.15B25,2013-04-12 07:01:00,
2013-04-12 02:06:00,31.1,29.1,29.84,WNW,290,0.0,0.0,92,0.00,,,0.00,WeatherCatV1.15B25,2013-04-12 07:06:00,
2013-04-12 02:11:00,31.0,29.0,29.84,WNW,290,0.0,0.0,92,0.00,,,0.00,WeatherCatV1.15B25,2013-04-12 07:11:00,
2013-04-12 02:16:00,30.9,28.9,29.85,WNW,290,0.0,0.0,92,0.00,,,0.00,WeatherCatV1.15B25,2013-04-12 07:16:00,
2013-04-12 02:21:00,30.8,29.0,29.84,WNW,290,0.0,0.0,93,0.00,,,0.00,WeatherCatV1.15B25,2013-04-12 07:21:00,
2013-04-12 02:26:00,30.8,29.0,29.84,WNW,290,0.0,0.0,93,0.00,,,0.00,WeatherCatV1.15B25,2013-04-12 07:26:00,
2013-04-12 02:31:00,30.7,28.9,29.84,WNW,290,0.0,0.0,93,0.00,,,0.00,WeatherCatV1.15B25,2013-04-12 07:31:00,
2013-04-12 02:36:00,30.6,28.8,29.84,WNW,290,0.0,0.0,93,0.00,,,0.00,WeatherCatV1.15B25,2013-04-12 07:36:00,
2013-04-12 02:41:00,30.5,28.7,29.84,WNW,290,0.0,0.0,93,0.00,,,0.00,WeatherCatV1.15B25,2013-04-12 07:41:00,
2013-04-12 02:46:00,30.5,28.7,29.84,WNW,290,0.0,0.0,93,0.00,,,0.00,WeatherCatV1.15B25,2013-04-12 07:46:00,
2013-04-12 02:51:00,30.3,28.5,29.84,WNW,290,0.0,0.0,93,0.00,,,0.00,WeatherCatV1.15B25,2013-04-12 07:51:00,
2013-04-12 02:56:00,30.3,28.5,29.84,WNW,290,0.0,0.0,93,0.00,,,0.00,WeatherCatV1.15B25,2013-04-12 07:56:00,
2013-04-12 03:01:00,30.2,28.4,29.84,WNW,290,0.0,0.0,93,0.00,,,0.00,WeatherCatV1.15B25,2013-04-12 08:01:00,
2013-04-12 03:06:00,30.2,28.7,29.84,WNW,290,0.0,0.0,94,0.00,,,0.00,WeatherCatV1.15B25,2013-04-12 08:06:00,
2013-04-12 03:11:00,30.2,28.7,29.84,WNW,290,0.0,0.0,94,0.00,,,0.00,WeatherCatV1.15B25,2013-04-12 08:11:00,
2013-04-12 03:16:00,30.2,28.7,29.84,WNW,290,0.0,0.0,94,0.00,,,0.00,WeatherCatV1.15B25,2013-04-12 08:16:00,
2013-04-12 03:21:00,30.1,28.6,29.84,WNW,290,0.0,0.0,94,0.00,,,0.00,WeatherCatV1.15B25,2013-04-12 08:21:00,
2013-04-12 03:26:00,30.1,28.6,29.84,WNW,290,0.0,0.0,94,0.00,,,0.00,WeatherCatV1.15B25,2013-04-12 08:26:00,
2013-04-12 03:31:00,30.0,28.5,29.85,WNW,290,0.0,0.0,94,0.00,,,0.00,WeatherCatV1.15B25,2013-04-12 08:31:00,
2013-04-12 03:36:00,30.0,28.5,29.85,WNW,290,0.0,0.0,94,0.00,,,0.00,WeatherCatV1.15B25,2013-04-12 08:36:00,
2013-04-12 03:41:00,29.9,28.4,29.85,WNW,290,0.0,0.0,94,0.00,,,0.00,WeatherCatV1.15B25,2013-04-12 08:41:00,
2013-04-12 03:46:00,29.9,28.4,29.85,WNW,290,0.0,0.0,94,0.00,,,0.00,WeatherCatV1.15B25,2013-04-12 08:46:00,
2013-04-12 03:51:00,29.8,28.3,29.85,WNW,290,0.0,0.0,94,0.00,,,0.00,WeatherCatV1.15B25,2013-04-12 08:51:00,
2013-04-12 03:56:00,29.8,28.3,29.86,West,277,0.0,1.0,94,0.00,,,0.00,WeatherCatV1.15B25,2013-04-12 08:56:00,
2013-04-12 04:01:00,29.8,28.3,29.86,West,277,0.0,0.0,94,0.00,,,0.00,WeatherCatV1.15B25,2013-04-12 09:01:00,
2013-04-12 04:06:00,29.8,28.3,29.86,WSW,248,0.0,0.0,94,0.00,,,0.00,WeatherCatV1.15B25,2013-04-12 09:06:00,
2013-04-12 04:11:00,29.8,28.3,29.86,WSW,248,0.0,0.0,94,0.00,,,0.00,WeatherCatV1.15B25,2013-04-12 09:11:00,
2013-04-12 04:16:00,29.8,28.5,29.86,WSW,248,0.0,0.0,95,0.00,,,0.00,WeatherCatV1.15B25,2013-04-12 09:16:00,
2013-04-12 04:21:00,29.9,28.6,29.87,WSW,248,0.0,0.0,95,0.00,,,0.00,WeatherCatV1.15B25,2013-04-12 09:21:00,
2013-04-12 04:26:00,30.0,28.7,29.87,WSW,248,0.0,0.0,95,0.00,,,0.00,WeatherCatV1.15B25,2013-04-12 09:26:00,
2013-04-12 04:31:00,30.2,28.9,29.87,WSW,248,0.0,0.0,95,0.00,,,0.00,WeatherCatV1.15B25,2013-04-12 09:31:00,
2013-04-12 04:36:00,30.5,29.5,29.88,WSW,248,0.0,1.0,96,0.00,,,0.00,WeatherCatV1.15B25,2013-04-12 09:36:00,
2013-04-12 04:41:00,30.9,29.9,29.88,WSW,243,3.0,4.0,96,0.00,,,0.00,WeatherCatV1.15B25,2013-04-12 09:41:00,
2013-04-12 04:46:00,31.1,30.1,29.88,SW,227,0.0,2.0,96,0.00,,,0.00,WeatherCatV1.15B25,2013-04-12 09:46:00,
2013-04-12 04:51:00,31.5,30.5,29.88,West,276,2.0,3.0,96,0.00,,,0.00,WeatherCatV1.15B25,2013-04-12 09:51:00,
2013-04-12 04:56:00,31.7,30.7,29.88,West,266,1.0,2.0,96,0.00,,,0.00,WeatherCatV1.15B25,2013-04-12 09:56:00,
2013-04-12 05:01:00,31.9,30.9,29.89,West,279,1.0,3.0,96,0.00,,,0.00,WeatherCatV1.15B25,2013-04-12 10:01:00,
2013-04-12 05:06:00,32.1,31.1,29.89,WSW,252,0.0,1.0,96,0.00,,,0.00,WeatherCatV1.15B25,2013-04-12 10:06:00,
2013-04-12 05:11:00,32.3,31.3,29.89,WNW,293,0.0,4.0,96,0.00,,,0.00,WeatherCatV1.15B25,2013-04-12 10:11:00,
2013-04-12 05:16:00,32.5,31.5,29.89,WSW,253,0.0,4.0,96,0.00,,,0.00,WeatherCatV1.15B25,2013-04-12 10:16:00,
2013-04-12 05:21:00,32.6,31.6,29.90,WNW,302,0.0,3.0,96,0.00,,,0.00,WeatherCatV1.15B25,2013-04-12 10:21:00,
2013-04-12 05:26:00,32.8,31.8,29.90,WSW,242,0.0,5.0,96,0.00,,,0.00,WeatherCatV1.15B25,2013-04-12 10:26:00,
2013-04-12 05:31:00,33.0,32.0,29.90,WSW,248,0.0,4.0,96,0.00,,,0.00,WeatherCatV1.15B25,2013-04-12 10:31:00,
2013-04-12 05:37:00,33.2,32.2,29.90,West,277,0.0,4.0,96,0.00,,,0.00,WeatherCatV1.15B25,2013-04-12 10:37:00,
2013-04-12 05:42:00,33.5,32.5,29.90,West,268,2.0,4.0,96,0.00,,,0.00,WeatherCatV1.15B25,2013-04-12 10:42:00,
2013-04-12 05:47:00,33.7,32.7,29.90,West,280,0.0,3.0,96,0.00,,,0.00,WeatherCatV1.15B25,2013-04-12 10:47:00,
2013-04-12 05:52:00,33.9,32.9,29.90,NNW,332,4.0,5.0,96,0.00,,,0.00,WeatherCatV1.15B25,2013-04-12 10:52:00,
2013-04-12 05:57:00,34.1,33.1,29.91,WNW,288,4.0,8.0,96,0.00,,,0.00,WeatherCatV1.15B25,2013-04-12 10:57:00,
2013-04-12 06:02:00,34.3,33.3,29.90,NW,307,2.0,5.0,96,0.00,,,0.00,WeatherCatV1.15B25,2013-04-12 11:02:00,
2013-04-12 06:06:00,34.6,33.1,29.91,WNW,288,2.0,10.0,94,0.00,,,0.00,WeatherCatV1.15B25,2013-04-12 11:06:00,
2013-04-12 06:11:00,34.7,32.1,29.90,WNW,303,3.0,12.0,90,0.00,,,0.00,WeatherCatV1.15B25,2013-04-12 11:11:00,
2013-04-12 06:16:00,35.0,31.5,29.91,WNW,292,4.0,7.0,87,0.00,,,0.00,WeatherCatV1.15B25,2013-04-12 11:16:00,
2013-04-12 06:21:00,35.0,31.2,29.91,West,266,0.0,5.0,86,0.00,,,0.00,WeatherCatV1.15B25,2013-04-12 11:21:00,
2013-04-12 06:26:00,35.1,31.3,29.91,NW,306,3.0,4.0,86,0.00,,,0.00,WeatherCatV1.15B25,2013-04-12 11:26:00,
2013-04-12 06:31:00,35.1,31.3,29.91,NW,318,0.0,2.0,86,0.00,,,0.00,WeatherCatV1.15B25,2013-04-12 11:31:00,
2013-04-12 06:36:00,35.1,31.3,29.91,WNW,302,1.0,4.0,86,0.00,,,0.00,WeatherCatV1.15B25,2013-04-12 11:36:00,
2013-04-12 06:41:00,35.1,31.1,29.91,WNW,294,3.0,8.0,85,0.00,,,0.00,WeatherCatV1.15B25,2013-04-12 11:41:00,
2013-04-12 06:46:00,35.0,30.7,29.92,NNW,337,4.0,6.0,84,0.00,,,0.00,WeatherCatV1.15B25,2013-04-12 11:46:00,
2013-04-12 06:51:00,34.9,30.3,29.92,NW,326,2.0,5.0,83,0.00,,,0.00,WeatherCatV1.15B25,2013-04-12 11:51:00,
2013-04-12 06:56:00,34.8,30.2,29.92,NW,309,3.0,7.0,83,0.00,,,0.00,WeatherCatV1.15B25,2013-04-12 11:56:00,
2013-04-12 07:01:00,34.8,30.2,29.92,NW,317,6.0,6.0,83,0.00,,,0.00,WeatherCatV1.15B25,2013-04-12 12:01:00,
2013-04-12 07:06:00,34.7,30.1,29.93,West,278,2.0,7.0,83,0.00,,,0.00,WeatherCatV1.15B25,2013-04-12 12:06:00,
2013-04-12 07:11:00,34.7,30.1,29.93,NNW,329,1.0,4.0,83,0.00,,,0.00,WeatherCatV1.15B25,2013-04-12 12:11:00,
2013-04-12 07:16:00,34.7,30.1,29.93,NW,316,3.0,9.0,83,0.00,,,0.00,WeatherCatV1.15B25,2013-04-12 12:16:00,
2013-04-12 07:21:00,34.7,29.8,29.93,WSW,247,3.0,6.0,82,0.00,,,0.00,WeatherCatV1.15B25,2013-04-12 12:21:00,
2013-04-12 07:26:00,34.9,29.4,29.93,WNW,294,1.0,6.0,80,0.00,,,0.00,WeatherCatV1.15B25,2013-04-12 12:26:00,
2013-04-12 07:31:00,35.1,29.6,29.93,WNW,300,5.0,10.0,80,0.00,,,0.00,WeatherCatV1.15B25,2013-04-12 12:31:00,
2013-04-12 07:36:00,35.3,29.5,29.93,NW,308,2.0,6.0,79,0.00,,,0.00,WeatherCatV1.15B25,2013-04-12 12:36:00,
2013-04-12 07:41:00,35.6,29.4,29.93,WNW,296,3.0,11.0,78,0.00,,,0.00,WeatherCatV1.15B25,2013-04-12 12:41:00,
2013-04-12 07:46:00,35.9,29.7,29.94,NW,321,4.0,10.0,78,0.00,,,0.00,WeatherCatV1.15B25,2013-04-12 12:46:00,
2013-04-12 07:51:00,36.2,29.7,29.94,West,267,2.0,3.0,77,0.00,,,0.00,WeatherCatV1.15B25,2013-04-12 12:51:00,
2013-04-12 07:56:00,36.4,29.6,29.94,WNW,299,5.0,8.0,76,0.00,,,0.00,WeatherCatV1.15B25,2013-04-12 12:56:00,
2013-04-12 08:01:00,36.7,29.9,29.94,West,265,7.0,9.0,76,0.00,,,0.00,WeatherCatV1.15B25,2013-04-12 13:01:00,
2013-04-12 08:06:00,37.0,29.8,29.94,NNW,333,2.0,9.0,75,0.00,,,0.00,WeatherCatV1.15B25,2013-04-12 13:06:00,
2013-04-12 08:11:00,37.2,29.7,29.94,NNW,327,2.0,15.0,74,0.00,,,0.00,WeatherCatV1.15B25,2013-04-12 13:11:00,
2013-04-12 08:16:00,37.5,30.0,29.94,West,260,3.0,8.0,74,0.00,,,0.00,WeatherCatV1.15B25,2013-04-12 13:16:00,
2013-04-12 08:21:00,37.7,29.8,29.95,WNW,296,5.0,11.0,73,0.00,,,0.00,WeatherCatV1.15B25,2013-04-12 13:21:00,
2013-04-12 08:26:00,37.9,29.7,29.95,NW,322,2.0,10.0,72,0.00,,,0.00,WeatherCatV1.15B25,2013-04-12 13:26:00,
2013-04-12 08:31:00,38.1,29.5,29.95,NW,317,9.0,14.0,71,0.00,,,0.00,WeatherCatV1.15B25,2013-04-12 13:31:00,
2013-04-12 08:36:00,38.4,30.2,29.95,West,261,8.0,10.0,72,0.00,,,0.00,WeatherCatV1.15B25,2013-04-12 13:36:00,
2013-04-12 08:41:00,38.6,30.0,29.96,NW,316,8.0,12.0,71,0.00,,,0.00,WeatherCatV1.15B25,2013-04-12 13:41:00,
2013-04-12 08:46:00,38.8,30.2,29.96,NW,319,12.0,12.0,71,0.00,,,0.00,WeatherCatV1.15B25,2013-04-12 13:46:00,
2013-04-12 08:51:00,39.0,30.1,29.96,NW,311,12.0,15.0,70,0.00,,,0.00,WeatherCatV1.15B25,2013-04-12 13:51:00,
2013-04-12 08:56:00,39.3,31.7,29.96,NW,311,5.0,11.0,74,0.00,,,0.00,WeatherCatV1.15B25,2013-04-12 13:56:00,
2013-04-12 09:01:00,39.6,29.9,29.96,NNW,331,5.0,11.0,68,0.00,,,0.00,WeatherCatV1.15B25,2013-04-12 14:01:00,
2013-04-12 09:06:00,39.8,30.5,29.96,NW,325,5.0,11.0,69,0.00,,,0.00,WeatherCatV1.15B25,2013-04-12 14:06:00,
2013-04-12 09:11:00,40.1,30.8,29.96,West,270,9.0,11.0,69,0.00,,,0.00,WeatherCatV1.15B25,2013-04-12 14:11:00,
2013-04-12 09:16:00,40.1,30.0,29.96,NW,321,5.0,12.0,67,0.00,,,0.00,WeatherCatV1.15B25,2013-04-12 14:16:00,
2013-04-12 09:21:00,40.1,30.4,29.97,WNW,298,9.0,12.0,68,0.00,,,0.00,WeatherCatV1.15B25,2013-04-12 14:21:00,
2013-04-12 09:26:00,40.5,31.1,29.97,North,355,2.0,10.0,69,0.00,,,0.00,WeatherCatV1.15B25,2013-04-12 14:26:00,
2013-04-12 09:31:00,40.8,31.4,29.97,WNW,289,8.0,15.0,69,0.00,,,0.00,WeatherCatV1.15B25,2013-04-12 14:31:00,
2013-04-12 09:36:00,41.2,30.7,29.97,WNW,285,8.0,12.0,66,0.00,,,0.00,WeatherCatV1.15B25,2013-04-12 14:36:00,
2013-04-12 09:41:00,41.3,31.2,29.97,NNE,24,2.0,11.0,67,0.00,,,0.00,WeatherCatV1.15B25,2013-04-12 14:41:00,
2013-04-12 09:46:00,41.6,31.5,29.97,NNW,336,9.0,11.0,67,0.00,,,0.00,WeatherCatV1.15B25,2013-04-12 14:46:00,
2013-04-12 09:51:00,41.9,31.8,29.97,NW,319,7.0,10.0,67,0.00,,,0.00,WeatherCatV1.15B25,2013-04-12 14:51:00,
2013-04-12 09:56:00,42.0,32.6,29.97,West,262,4.0,8.0,69,0.00,,,0.00,WeatherCatV1.15B25,2013-04-12 14:56:00,
2013-04-12 10:01:00,42.2,31.7,29.98,WNW,297,4.0,13.0,66,0.00,,,0.00,WeatherCatV1.15B25,2013-04-12 15:01:00,
2013-04-12 10:06:00,42.4,32.2,29.98,WSW,253,6.0,10.0,67,0.00,,,0.00,WeatherCatV1.15B25,2013-04-12 15:06:00,
2013-04-12 10:11:00,42.5,31.6,29.98,NNW,328,6.0,12.0,65,0.00,,,0.00,WeatherCatV1.15B25,2013-04-12 15:11:00,
2013-04-12 10:16:00,42.8,33.3,29.98,NW,306,6.0,11.0,69,0.00,,,0.00,WeatherCatV1.15B25,2013-04-12 15:16:00,
2013-04-12 10:21:00,43.1,32.1,29.98,West,259,10.0,10.0,65,0.00,,,0.00,WeatherCatV1.15B25,2013-04-12 15:21:00,
2013-04-12 10:26:00,43.4,33.2,29.98,NNW,331,9.0,10.0,67,0.00,,,0.00,WeatherCatV1.15B25,2013-04-12 15:26:00,
2013-04-12 10:31:00,43.5,32.5,29.99,WSW,240,9.0,14.0,65,0.00,,,0.00,WeatherCatV1.15B25,2013-04-12 15:31:00,
2013-04-12 10:36:00,43.6,32.2,29.99,NW,306,9.0,11.0,64,0.00,,,0.00,WeatherCatV1.15B25,2013-04-12 15:36:00,
2013-04-12 10:41:00,43.9,32.5,29.99,NNW,344,10.0,14.0,64,0.00,,,0.00,WeatherCatV1.15B25,2013-04-12 15:41:00,
2013-04-12 10:46:00,44.4,32.6,29.99,WNW,295,6.0,16.0,63,0.00,,,0.00,WeatherCatV1.15B25,2013-04-12 15:46:00,
2013-04-12 10:51:00,44.5,32.3,30.00,NNW,339,7.0,16.0,62,0.00,,,0.00,WeatherCatV1.15B25,2013-04-12 15:51:00,
2013-04-12 10:56:00,44.8,33.0,30.00,WSW,256,7.0,14.0,63,0.00,,,0.00,WeatherCatV1.15B25,2013-04-12 15:56:00,
2013-04-12 11:01:00,45.2,34.9,30.00,NW,306,6.0,11.0,67,0.00,,,0.00,WeatherCatV1.15B25,2013-04-12 16:01:00,
2013-04-12 11:06:00,45.4,34.3,30.00,NW,306,5.0,9.0,65,0.00,,,0.00,WeatherCatV1.15B25,2013-04-12 16:06:00,
2013-04-12 11:11:00,45.6,33.7,30.00,West,281,6.0,10.0,63,0.00,,,0.00,WeatherCatV1.15B25,2013-04-12 16:11:00,
2013-04-12 11:16:00,45.8,33.9,30.00,NW,323,9.0,9.0,63,0.00,,,0.00,WeatherCatV1.15B25,2013-04-12 16:16:00,
2013-04-12 11:21:00,45.6,32.9,30.00,NW,306,4.0,13.0,61,0.00,,,0.00,WeatherCatV1.15B25,2013-04-12 16:21:00,
2013-04-12 11:26:00,45.8,33.5,30.00,NW,305,2.0,11.0,62,0.00,,,0.00,WeatherCatV1.15B25,2013-04-12 16:26:00,
2013-04-12 11:31:00,45.4,32.3,30.00,West,275,7.0,14.0,60,0.00,,,0.00,WeatherCatV1.15B25,2013-04-12 16:31:00,
2013-04-12 11:36:00,45.5,32.8,30.00,West,275,8.0,11.0,61,0.00,,,0.00,WeatherCatV1.15B25,2013-04-12 16:36:00,
2013-04-12 11:41:00,45.9,34.0,30.00,West,276,5.0,12.0,63,0.00,,,0.00,WeatherCatV1.15B25,2013-04-12 16:41:00,
2013-04-12 11:46:00,46.6,35.5,30.00,WSW,252,2.0,7.0,65,0.00,,,0.00,WeatherCatV1.15B25,2013-04-12 16:46:00,
2013-04-12 11:51:00,46.9,33.3,30.00,SW,219,6.0,14.0,59,0.00,,,0.00,WeatherCatV1.15B25,2013-04-12 16:51:00,
2013-04-12 11:56:00,47.3,35.7,30.01,WNW,303,12.0,12.0,64,0.00,,,0.00,WeatherCatV1.15B25,2013-04-12 16:56:00,
2013-04-12 12:01:00,47.3,34.1,30.01,WNW,283,2.0,14.0,60,0.00,,,0.00,WeatherCatV1.15B25,2013-04-12 17:01:00,
2013-04-12 12:06:00,47.6,34.8,30.01,West,275,11.0,11.0,61,0.00,,,0.00,WeatherCatV1.15B25,2013-04-12 17:06:00,
2013-04-12 12:11:00,47.9,34.7,30.01,WNW,286,4.0,10.0,60,0.00,,,0.00,WeatherCatV1.15B25,2013-04-12 17:11:00,
2013-04-12 12:16:00,48.2,34.1,30.01,NNW,331,5.0,13.0,58,0.00,,,0.00,WeatherCatV1.15B25,2013-04-12 17:16:00,
2013-04-12 12:21:00,48.3,34.6,30.01,WSW,251,4.0,9.0,59,0.00,,,0.00,WeatherCatV1.15B25,2013-04-12 17:21:00,
2013-04-12 12:26:00,48.6,34.9,30.01,West,261,7.0,14.0,59,0.00,,,0.00,WeatherCatV1.15B25,2013-04-12 17:26:00,
2013-04-12 12:31:00,49.0,34.9,30.01,NW,319,5.0,6.0,58,0.00,,,0.00,WeatherCatV1.15B25,2013-04-12 17:31:00,
2013-04-12 12:36:00,49.0,34.4,30.01,SW,225,5.0,11.0,57,0.00,,,0.00,WeatherCatV1.15B25,2013-04-12 17:36:00,
2013-04-12 12:41:00,48.9,35.2,30.01,WSW,252,13.0,13.0,59,0.00,,,0.00,WeatherCatV1.15B25,2013-04-12 17:41:00,
2013-04-12 12:46:00,48.9,35.2,30.01,NNW,348,5.0,13.0,59,0.00,,,0.00,WeatherCatV1.15B25,2013-04-12 17:46:00,
2013-04-12 12:51:00,48.9,33.5,30.02,WSW,247,10.0,11.0,55,0.00,,,0.00,WeatherCatV1.15B25,2013-04-12 17:51:00,
2013-04-12 12:56:00,49.2,34.6,30.01,SW,223,10.0,15.0,57,0.00,,,0.00,WeatherCatV1.15B25,2013-04-12 17:56:00,
2013-04-12 13:02:00,49.6,35.9,30.01,WNW,282,18.0,18.0,59,0.00,,,0.00,WeatherCatV1.15B25,2013-04-12 18:02:00,
2013-04-12 13:07:00,49.7,35.1,30.02,NW,310,6.0,12.0,57,0.00,,,0.00,WeatherCatV1.15B25,2013-04-12 18:07:00,
2013-04-12 13:12:00,50.1,35.5,30.01,WNW,292,5.0,12.0,57,0.00,,,0.00,WeatherCatV1.15B25,2013-04-12 18:12:00,
2013-04-12 13:17:00,50.3,35.2,30.01,NNW,343,12.0,18.0,56,0.00,,,0.00,WeatherCatV1.15B25,2013-04-12 18:17:00,
2013-04-12 13:23:00,50.1,34.1,30.01,NNW,327,9.0,11.0,54,0.00,,,0.00,WeatherCatV1.15B25,2013-04-12 18:23:00,
2013-04-12 13:25:00,50.1,35.5,30.01,WNW,295,7.0,7.0,57,0.00,,,0.00,WeatherCatV1.15B25,2013-04-12 18:25:00,
2013-04-12 13:28:00,50.5,35.4,30.01,WSW,244,7.0,14.0,56,0.00,,,0.00,WeatherCatV1.15B25,2013-04-12 18:28:00,
2013-04-12 13:30:00,50.7,35.6,30.01,West,281,6.0,9.0,56,0.00,,,0.00,WeatherCatV1.15B25,2013-04-12 18:30:00,
2013-04-12 13:35:00,51.2,36.0,30.01,WNW,289,6.0,10.0,56,0.00,,,0.00,WeatherCatV1.15B25,2013-04-12 18:35:00,
2013-04-12 13:40:00,51.2,35.6,30.01,WNW,295,8.0,11.0,55,0.00,,,0.00,WeatherCatV1.15B25,2013-04-12 18:40:00,
2013-04-12 13:45:00,51.2,34.7,30.01,West,272,8.0,16.0,53,0.00,,,0.00,WeatherCatV1.15B25,2013-04-12 18:45:00,
2013-04-12 13:50:00,51.6,35.5,30.01,WNW,293,7.0,11.0,54,0.00,,,0.00,WeatherCatV1.15B25,2013-04-12 18:50:00,
2013-04-12 13:55:00,51.6,34.6,30.00,WNW,302,7.0,10.0,52,0.00,,,0.00,WeatherCatV1.15B25,2013-04-12 18:55:00,
2013-04-12 14:00:00,51.8,35.2,30.01,WNW,296,7.0,10.0,53,0.00,,,0.00,WeatherCatV1.15B25,2013-04-12 19:00:00,
2013-04-12 14:05:00,51.6,34.6,30.00,NW,306,7.0,18.0,52,0.00,,,0.00,WeatherCatV1.15B25,2013-04-12 19:05:00,
2013-04-12 14:10:00,51.5,36.3,30.00,NW,308,8.0,11.0,56,0.00,,,0.00,WeatherCatV1.15B25,2013-04-12 19:10:00,
2013-04-12 14:15:00,51.8,35.7,30.00,WNW,286,7.0,10.0,54,0.00,,,0.00,WeatherCatV1.15B25,2013-04-12 19:15:00,
2013-04-12 14:28:00,52.2,35.1,30.00,WNW,284,6.0,11.0,52,0.00,,,0.00,WeatherCatV1.15B25,2013-04-12 19:28:00,
2013-04-12 14:31:00,52.1,35.5,30.00,West,277,11.0,12.0,53,0.00,,,0.00,WeatherCatV1.15B25,2013-04-12 19:31:00,
2013-04-12 14:36:00,52.2,35.6,30.00,NW,321,6.0,11.0,53,0.00,,,0.00,WeatherCatV1.15B25,2013-04-12 19:36:00,
2013-04-12 14:41:00,52.5,36.3,30.00,NW,309,4.0,12.0,54,0.00,,,0.00,WeatherCatV1.15B25,2013-04-12 19:41:00,
2013-04-12 14:46:00,52.4,36.2,30.00,WNW,284,10.0,16.0,54,0.00,,,0.00,WeatherCatV1.15B25,2013-04-12 19:46:00,
2013-04-12 14:51:00,52.5,37.3,30.01,NNW,332,8.0,13.0,56,0.00,,,0.00,WeatherCatV1.15B25,2013-04-12 19:51:00,
2013-04-12 14:56:00,52.3,36.2,30.00,West,275,3.0,9.0,54,0.00,,,0.00,WeatherCatV1.15B25,2013-04-12 19:56:00,
2013-04-12 15:01:00,52.5,36.3,30.00,WNW,286,6.0,15.0,54,0.00,,,0.00,WeatherCatV1.15B25,2013-04-12 20:01:00,
2013-04-12 15:06:00,52.6,36.0,30.00,North,0,6.0,11.0,53,0.00,,,0.00,WeatherCatV1.15B25,2013-04-12 20:06:00,
2013-04-12 15:11:00,52.8,36.1,30.00,NNW,331,11.0,14.0,53,0.00,,,0.00,WeatherCatV1.15B25,2013-04-12 20:11:00,
2013-04-12 15:16:00,52.8,36.1,30.00,WNW,294,6.0,13.0,53,0.00,,,0.00,WeatherCatV1.15B25,2013-04-12 20:16:00,
2013-04-12 15:21:00,52.9,36.2,30.00,NNW,342,14.0,14.0,53,0.00,,,0.00,WeatherCatV1.15B25,2013-04-12 20:21:00,
2013-04-12 15:26:00,53.0,37.7,30.00,WSW,257,6.0,8.0,56,0.00,,,0.00,WeatherCatV1.15B25,2013-04-12 20:26:00,
2013-04-12 15:31:00,53.3,37.5,30.00,WNW,302,3.0,11.0,55,0.00,,,0.00,WeatherCatV1.15B25,2013-04-12 20:31:00,
2013-04-12 15:36:00,53.4,36.2,30.00,West,265,8.0,11.0,52,0.00,,,0.00,WeatherCatV1.15B25,2013-04-12 20:36:00,
2013-04-12 15:41:00,53.6,36.9,30.00,NW,317,9.0,9.0,53,0.00,,,0.00,WeatherCatV1.15B25,2013-04-12 20:41:00,
2013-04-12 15:46:00,53.6,37.4,30.00,NW,323,7.0,12.0,54,0.00,,,0.00,WeatherCatV1.15B25,2013-04-12 20:46:00,
2013-04-12 15:51:00,53.3,37.1,30.00,WNW,302,11.0,12.0,54,0.00,,,0.00,WeatherCatV1.15B25,2013-04-12 20:51:00,
2013-04-12 15:56:00,53.4,38.6,30.00,NW,306,4.0,12.0,57,0.00,,,0.00,WeatherCatV1.15B25,2013-04-12 20:56:00,
2013-04-12 16:01:00,53.7,38.4,30.00,NW,307,11.0,11.0,56,0.00,,,0.00,WeatherCatV1.15B25,2013-04-12 21:01:00,
2013-04-12 16:06:00,53.9,36.7,30.00,NW,306,4.0,13.0,52,0.00,,,0.00,WeatherCatV1.15B25,2013-04-12 21:06:00,
2013-04-12 16:11:00,53.6,37.4,30.00,NW,321,3.0,11.0,54,0.00,,,0.00,WeatherCatV1.15B25,2013-04-12 21:11:00,
2013-04-12 16:16:00,53.7,38.4,30.00,WNW,302,4.0,11.0,56,0.00,,,0.00,WeatherCatV1.15B25,2013-04-12 21:16:00,
2013-04-12 16:21:00,53.8,37.5,30.00,NW,318,4.0,12.0,54,0.00,,,0.00,WeatherCatV1.15B25,2013-04-12 21:21:00,
2013-04-12 16:26:00,53.8,37.5,30.00,West,269,9.0,10.0,54,0.00,,,0.00,WeatherCatV1.15B25,2013-04-12 21:26:00,
2013-04-12 16:31:00,53.8,36.1,30.00,NW,305,4.0,12.0,51,0.00,,,0.00,WeatherCatV1.15B25,2013-04-12 21:31:00,
2013-04-12 16:36:00,53.3,35.6,30.00,NW,324,5.0,10.0,51,0.00,,,0.00,WeatherCatV1.15B25,2013-04-12 21:36:00,
2013-04-12 16:41:00,53.2,38.4,30.00,NW,324,6.0,13.0,57,0.00,,,0.00,WeatherCatV1.15B25,2013-04-12 21:41:00,
2013-04-12 16:46:00,53.4,37.6,30.00,WNW,296,6.0,8.0,55,0.00,,,0.00,WeatherCatV1.15B25,2013-04-12 21:46:00,
2013-04-12 16:51:00,53.7,37.5,30.00,West,268,5.0,17.0,54,0.00,,,0.00,WeatherCatV1.15B25,2013-04-12 21:51:00,
2013-04-12 16:56:00,53.9,37.6,30.00,NW,308,6.0,12.0,54,0.00,,,0.00,WeatherCatV1.15B25,2013-04-12 21:56:00,
2013-04-12 17:01:00,53.7,37.0,30.00,WSW,254,5.0,10.0,53,0.00,,,0.00,WeatherCatV1.15B25,2013-04-12 22:01:00,
2013-04-12 17:06:00,53.7,37.5,30.01,West,279,7.0,10.0,54,0.00,,,0.00,WeatherCatV1.15B25,2013-04-12 22:06:00,
2013-04-12 17:11:00,53.6,36.4,30.00,NNW,336,6.0,8.0,52,0.00,,,0.00,WeatherCatV1.15B25,2013-04-12 22:11:00,
2013-04-12 17:16:00,53.4,37.6,30.00,WNW,295,6.0,8.0,55,0.00,,,0.00,WeatherCatV1.15B25,2013-04-12 22:16:00,
2013-04-12 17:21:00,53.5,37.7,30.00,NW,313,6.0,8.0,55,0.00,,,0.00,WeatherCatV1.15B25,2013-04-12 22:21:00,
2013-04-12 17:26:00,53.4,37.2,30.01,WNW,299,11.0,11.0,54,0.00,,,0.00,WeatherCatV1.15B25,2013-04-12 22:26:00,
2013-04-12 17:31:00,53.3,37.1,30.01,West,275,3.0,8.0,54,0.00,,,0.00,WeatherCatV1.15B25,2013-04-12 22:31:00,
2013-04-12 17:36:00,53.3,37.1,30.01,West,281,5.0,6.0,54,0.00,,,0.00,WeatherCatV1.15B25,2013-04-12 22:36:00,
2013-04-12 17:41:00,53.2,36.5,30.01,SW,219,2.0,5.0,53,0.00,,,0.00,WeatherCatV1.15B25,2013-04-12 22:41:00,
2013-04-12 17:46:00,53.3,38.0,30.01,West,270,5.0,8.0,56,0.00,,,0.00,WeatherCatV1.15B25,2013-04-12 22:46:00,
2013-04-12 17:51:00,53.3,37.5,30.01,WNW,292,2.0,7.0,55,0.00,,,0.00,WeatherCatV1.15B25,2013-04-12 22:51:00,
2013-04-12 17:56:00,53.3,37.1,30.01,West,274,9.0,9.0,54,0.00,,,0.00,WeatherCatV1.15B25,2013-04-12 22:56:00,
2013-04-12 18:01:00,53.1,36.4,30.01,NW,309,3.0,8.0,53,0.00,,,0.00,WeatherCatV1.15B25,2013-04-12 23:01:00,
2013-04-12 18:06:00,53.1,37.4,30.01,WNW,294,6.0,8.0,55,0.00,,,0.00,WeatherCatV1.15B25,2013-04-12 23:06:00,
2013-04-12 18:11:00,53.0,36.8,30.01,West,263,11.0,13.0,54,0.00,,,0.00,WeatherCatV1.15B25,2013-04-12 23:11:00,
2013-04-12 18:16:00,52.9,36.2,30.01,West,263,4.0,9.0,53,0.00,,,0.00,WeatherCatV1.15B25,2013-04-12 23:16:00,
2013-04-12 18:21:00,52.8,37.1,30.01,NNW,335,8.0,8.0,55,0.00,,,0.00,WeatherCatV1.15B25,2013-04-12 23:21:00,
2013-04-12 18:26:00,52.6,36.4,30.01,WNW,284,4.0,7.0,54,0.00,,,0.00,WeatherCatV1.15B25,2013-04-12 23:26:00,
2013-04-12 18:31:00,52.4,37.2,30.00,NW,323,5.0,5.0,56,0.00,,,0.00,WeatherCatV1.15B25,2013-04-12 23:31:00,
2013-04-12 18:36:00,52.1,36.4,30.00,WNW,298,3.0,6.0,55,0.00,,,0.00,WeatherCatV1.15B25,2013-04-12 23:36:00,
2013-04-12 18:41:00,51.9,37.2,30.00,West,265,4.0,7.0,57,0.00,,,0.00,WeatherCatV1.15B25,2013-04-12 23:41:00,
2013-04-12 18:46:00,51.5,36.3,30.00,NW,304,3.0,6.0,56,0.00,,,0.00,WeatherCatV1.15B25,2013-04-12 23:46:00,
2013-04-12 18:51:00,51.3,36.6,30.00,West,259,7.0,7.0,57,0.00,,,0.00,WeatherCatV1.15B25,2013-04-12 23:51:00,
2013-04-12 18:56:00,50.9,36.2,30.00,NW,317,4.0,10.0,57,0.00,,,0.00,WeatherCatV1.15B25,2013-04-12 23:56:00,
2013-04-12 19:01:00,50.5,36.3,30.00,WNW,302,0.0,4.0,58,0.00,,,0.00,WeatherCatV1.15B25,2013-04-13 00:01:00,
2013-04-12 19:06:00,50.3,36.1,30.00,North,350,0.0,2.0,58,0.00,,,0.00,WeatherCatV1.15B25,2013-04-13 00:06:00,
2013-04-12 19:11:00,50.0,36.2,30.00,NNW,343,3.0,4.0,59,0.00,,,0.00,WeatherCatV1.15B25,2013-04-13 00:11:00,
2013-04-12 19:16:00,49.7,36.0,30.01,WNW,289,1.0,3.0,59,0.00,,,0.00,WeatherCatV1.15B25,2013-04-13 00:16:00,
2013-04-12 19:21:00,49.5,35.8,30.01,NW,304,2.0,3.0,59,0.00,,,0.00,WeatherCatV1.15B25,2013-04-13 00:21:00,
2013-04-12 19:26:00,49.2,35.9,30.01,WNW,286,1.0,4.0,60,0.00,,,0.00,WeatherCatV1.15B25,2013-04-13 00:26:00,
2013-04-12 19:31:00,49.0,36.1,30.01,West,267,0.0,2.0,61,0.00,,,0.00,WeatherCatV1.15B25,2013-04-13 00:31:00,
2013-04-12 19:36:00,48.8,36.0,30.01,West,267,0.0,0.0,61,0.00,,,0.00,WeatherCatV1.15B25,2013-04-13 00:36:00,
2013-04-12 19:41:00,48.5,36.1,30.01,West,267,0.0,0.0,62,0.00,,,0.00,WeatherCatV1.15B25,2013-04-13 00:41:00,
2013-04-12 19:46:00,48.2,35.8,30.01,West,267,0.0,0.0,62,0.00,,,0.00,WeatherCatV1.15B25,2013-04-13 00:46:00,
2013-04-12 19:51:00,47.8,35.8,30.01,West,267,0.0,1.0,63,0.00,,,0.00,WeatherCatV1.15B25,2013-04-13 00:51:00,
2013-04-12 19:56:00,47.5,35.9,30.01,West,267,0.0,0.0,64,0.00,,,0.00,WeatherCatV1.15B25,2013-04-13 00:56:00,
2013-04-12 20:01:00,47.2,36.0,30.01,West,267,0.0,0.0,65,0.00,,,0.00,WeatherCatV1.15B25,2013-04-13 01:01:00,
2013-04-12 20:06:00,47.0,35.9,30.01,West,267,0.0,0.0,65,0.00,,,0.00,WeatherCatV1.15B25,2013-04-13 01:06:00,
2013-04-12 20:11:00,46.7,36.0,30.02,West,267,0.0,0.0,66,0.00,,,0.00,WeatherCatV1.15B25,2013-04-13 01:11:00,
2013-04-12 20:16:00,46.3,35.6,30.02,West,267,0.0,0.0,66,0.00,,,0.00,WeatherCatV1.15B25,2013-04-13 01:16:00,
2013-04-12 20:21:00,45.8,35.5,30.02,West,267,0.0,0.0,67,0.00,,,0.00,WeatherCatV1.15B25,2013-04-13 01:21:00,
2013-04-12 20:26:00,45.2,35.6,30.02,West,267,0.0,0.0,69,0.00,,,0.00,WeatherCatV1.15B25,2013-04-13 01:26:00,
2013-04-12 20:31:00,44.7,36.6,30.02,West,267,0.0,0.0,73,0.00,,,0.00,WeatherCatV1.15B25,2013-04-13 01:31:00,
2013-04-12 20:36:00,44.3,35.9,30.03,West,267,0.0,0.0,72,0.00,,,0.00,WeatherCatV1.15B25,2013-04-13 01:36:00,
2013-04-12 20:41:00,43.8,35.4,30.03,West,267,0.0,0.0,72,0.00,,,0.00,WeatherCatV1.15B25,2013-04-13 01:41:00,
2013-04-12 20:46:00,43.3,35.2,30.03,West,267,0.0,0.0,73,0.00,,,0.00,WeatherCatV1.15B25,2013-04-13 01:46:00,
2013-04-12 20:51:00,42.9,34.9,30.04,West,267,0.0,0.0,73,0.00,,,0.00,WeatherCatV1.15B25,2013-04-13 01:51:00,
2013-04-12 20:56:00,42.5,34.8,30.04,West,267,0.0,0.0,74,0.00,,,0.00,WeatherCatV1.15B25,2013-04-13 01:56:00,
2013-04-12 21:01:00,42.2,34.9,30.04,West,267,0.0,0.0,75,0.00,,,0.00,WeatherCatV1.15B25,2013-04-13 02:01:00,
2013-04-12 21:06:00,41.8,34.8,30.04,West,267,0.0,0.0,76,0.00,,,0.00,WeatherCatV1.15B25,2013-04-13 02:06:00,
2013-04-12 21:11:00,41.4,35.1,30.04,West,267,0.0,0.0,78,0.00,,,0.00,WeatherCatV1.15B25,2013-04-13 02:11:00,
2013-04-12 21:16:00,40.7,34.7,30.04,West,267,0.0,0.0,79,0.00,,,0.00,WeatherCatV1.15B25,2013-04-13 02:16:00,
2013-04-12 21:21:00,40.4,35.3,30.04,West,267,0.0,0.0,82,0.00,,,0.00,WeatherCatV1.15B25,2013-04-13 02:21:00,
2013-04-12 21:26:00,40.1,35.4,30.04,West,267,0.0,0.0,83,0.00,,,0.00,WeatherCatV1.15B25,2013-04-13 02:26:00,
2013-04-12 21:31:00,39.7,34.7,30.04,West,267,0.0,0.0,82,0.00,,,0.00,WeatherCatV1.15B25,2013-04-13 02:31:00,
2013-04-12 21:36:00,39.4,34.7,30.05,West,267,0.0,0.0,83,0.00,,,0.00,WeatherCatV1.15B25,2013-04-13 02:36:00,
2013-04-12 21:41:00,39.3,34.6,30.05,West,267,0.0,0.0,83,0.00,,,0.00,WeatherCatV1.15B25,2013-04-13 02:41:00,
2013-04-12 21:46:00,39.1,34.4,30.05,West,267,0.0,0.0,83,0.00,,,0.00,WeatherCatV1.15B25,2013-04-13 02:46:00,
2013-04-12 21:51:00,38.7,34.3,30.05,West,267,0.0,0.0,84,0.00,,,0.00,WeatherCatV1.15B25,2013-04-13 02:51:00,
2013-04-12 21:56:00,38.4,34.0,30.05,West,267,0.0,0.0,84,0.00,,,0.00,WeatherCatV1.15B25,2013-04-13 02:56:00,
2013-04-12 22:01:00,38.1,34.0,30.05,West,267,0.0,0.0,85,0.00,,,0.00,WeatherCatV1.15B25,2013-04-13 03:01:00,
2013-04-12 22:06:00,37.9,33.8,30.06,West,267,0.0,0.0,85,0.00,,,0.00,WeatherCatV1.15B25,2013-04-13 03:06:00,
2013-04-12 22:11:00,37.6,33.5,30.06,West,267,0.0,0.0,85,0.00,,,0.00,WeatherCatV1.15B25,2013-04-13 03:11:00,
2013-04-12 22:16:00,37.4,33.6,30.06,West,267,0.0,0.0,86,0.00,,,0.00,WeatherCatV1.15B25,2013-04-13 03:16:00,
2013-04-12 22:21:00,37.2,33.7,30.06,West,267,0.0,0.0,87,0.00,,,0.00,WeatherCatV1.15B25,2013-04-13 03:21:00,
2013-04-12 22:26:00,37.1,33.6,30.06,West,268,0.0,0.0,87,0.00,,,0.00,WeatherCatV1.15B25,2013-04-13 03:26:00,
2013-04-12 22:31:00,37.0,33.5,30.06,West,273,0.0,0.0,87,0.00,,,0.00,WeatherCatV1.15B25,2013-04-13 03:31:00,
2013-04-12 22:36:00,36.8,33.3,30.07,NNW,347,0.0,0.0,87,0.00,,,0.00,WeatherCatV1.15B25,2013-04-13 03:36:00,
2013-04-12 22:42:00,36.5,33.3,30.07,NE,53,0.0,0.0,88,0.00,,,0.00,WeatherCatV1.15B25,2013-04-13 03:42:00,
2013-04-12 22:47:00,36.3,33.1,30.07,NE,53,0.0,0.0,88,0.00,,,0.00,WeatherCatV1.15B25,2013-04-13 03:47:00,
2013-04-12 22:52:00,36.1,33.2,30.07,NE,53,0.0,0.0,89,0.00,,,0.00,WeatherCatV1.15B25,2013-04-13 03:52:00,
2013-04-12 22:57:00,36.0,33.1,30.08,NE,53,0.0,0.0,89,0.00,,,0.00,WeatherCatV1.15B25,2013-04-13 03:57:00,
2013-04-12 23:00:00,36.0,33.1,30.08,NE,53,0.0,0.0,89,0.00,,,0.00,WeatherCatV1.15B25,2013-04-13 04:00:00,
2013-04-12 23:01:00,35.9,33.0,30.08,NE,53,0.0,0.0,89,0.00,,,0.00,WeatherCatV1.15B25,2013-04-13 04:01:00,
2013-04-12 23:06:00,35.7,32.8,30.08,NE,53,0.0,0.0,89,0.00,,,0.00,WeatherCatV1.15B25,2013-04-13 04:06:00,
2013-04-12 23:11:00,35.6,32.7,30.08,NE,53,0.0,0.0,89,0.00,,,0.00,WeatherCatV1.15B25,2013-04-13 04:11:00,
2013-04-12 23:16:00,35.5,32.9,30.08,NE,53,0.0,0.0,90,0.00,,,0.00,WeatherCatV1.15B25,2013-04-13 04:16:00,
2013-04-12 23:21:00,35.3,32.7,30.08,NE,53,0.0,0.0,90,0.00,,,0.00,WeatherCatV1.15B25,2013-04-13 04:21:00,
2013-04-12 23:26:00,35.2,32.6,30.08,NE,53,0.0,0.0,90,0.00,,,0.00,WeatherCatV1.15B25,2013-04-13 04:26:00,
2013-04-12 23:31:00,35.1,32.5,30.08,NE,53,0.0,0.0,90,0.00,,,0.00,WeatherCatV1.15B25,2013-04-13 04:31:00,
2013-04-12 23:36:00,35.0,32.6,30.08,NE,53,0.0,0.0,91,0.00,,,0.00,WeatherCatV1.15B25,2013-04-13 04:36:00,
2013-04-12 23:41:00,34.9,32.5,30.08,NE,53,0.0,0.0,91,0.00,,,0.00,WeatherCatV1.15B25,2013-04-13 04:41:00,
2013-04-12 23:46:00,34.8,32.4,30.08,NE,53,0.0,0.0,91,0.00,,,0.00,WeatherCatV1.15B25,2013-04-13 04:46:00,
2013-04-12 23:51:00,34.7,32.3,30.09,NE,53,0.0,0.0,91,0.00,,,0.00,WeatherCatV1.15B25,2013-04-13 04:51:00,
2013-04-12 23:56:00,34.6,32.2,30.09,NE,53,0.0,0.0,91,0.00,,,0.00,WeatherCatV1.15B25,2013-04-13 04:56:00,